Time;durP1;ratioP1;P1;durP2;ratioP2;P2;SDS_P1;SDS_P2;PMS_P1;PMS_P2;Temp;Humidity;BMP_temperature;BMP_pressure;BME280_temperature;BME280_humidity;BME280_pressure;Samples;Min_cycle;Max_cycle;Signal;HPM_P1;HPM_P2
2022/06/13 00:00:29;;;;;;;;;;;;;;;20.88;74.71;100621.47;7407290;19;1908;-36
2022/06/13 00:02:57;;;;;;;;;;;;;;;20.86;74.84;100608.19;7407121;19;1732;-36
2022/06/13 00:05:25;;;;;;;;;;;;;;;20.95;74.40;100623.41;7407442;19;1650;-36
2022/06/13 00:07:56;;;;;;;;;;;;;;;20.92;74.22;100612.94;7407713;19;1099;-35
2022/06/13 00:10:24;;;;;;;;;;;;;;;20.89;74.45;100613.28;7407124;19;2081;-36
2022/06/13 00:12:53;;;;;;;;;;;;;;;20.84;74.14;100607.50;7403700;19;1893;-37
2022/06/13 00:15:21;;;;;;;;;;;;;;;20.79;74.60;100601.72;7403690;19;1872;-36
2022/06/13 00:17:49;;;;;;;;;;;;;;;20.84;74.61;100610.19;7407742;19;1909;-35
2022/06/13 00:20:18;;;;;;;;;;;;;;;20.81;74.54;100605.97;7406397;19;1570;-36
2022/06/13 00:22:46;;;;;;;;;;;;;;;20.80;74.23;100608.78;7407289;19;1610;-36
2022/06/13 00:25:17;;;;;;;;;;;;;;;20.82;74.40;100606.81;7406226;19;1987;-36
2022/06/13 00:27:46;;;;;;;;;;;;;;;20.91;74.04;100608.59;7402436;19;1759;-36
2022/06/13 00:30:14;;;;;;;;;;;;;;;20.82;74.37;100596.06;7405499;19;1840;-36
2022/06/13 00:32:43;;;;;;;;;;;;;;;20.73;74.40;100596.94;7406878;19;1635;-36
2022/06/13 00:35:11;;;;;;;;;;;;;;;20.80;74.60;100606.09;7406799;19;1861;-36
2022/06/13 00:37:39;;;;;;;;;;;;;;;20.78;74.91;100600.03;7405286;19;2052;-36
2022/06/13 00:40:09;;;;;;;;;;;;;;;20.66;74.73;100597.56;7406097;19;1631;-35
2022/06/13 00:42:41;;;;;;;;;;;;;;;20.62;75.03;100614.13;7400526;19;2018;-36
2022/06/13 00:45:14;;;;;;;;;;;;;;;20.76;74.81;100616.31;7405466;19;1752;-36
2022/06/13 00:47:43;;;;;;;;;;;;;;;20.80;74.12;100598.03;7406308;19;1901;-37
2022/06/13 00:50:13;;;;;;;;;;;;;;;20.36;75.75;100608.59;7406172;19;1538;-35
2022/06/13 00:52:45;;;;;;;;;;;;;;;20.59;75.12;100601.84;7405754;19;1731;-36
2022/06/13 00:55:14;;;;;;;;;;;;;;;20.68;74.63;100591.19;7404148;19;2031;-36
2022/06/13 00:57:45;;;;;;;;;;;;;;;20.69;75.36;100600.94;7402035;19;2048;-35
2022/06/13 01:00:15;;;;;;;;;;;;;;;20.59;75.24;100622.47;7405443;19;1648;-36
2022/06/13 01:02:45;;;;;;;;;;;;;;;20.58;75.25;100612.72;7403474;19;1664;-36
2022/06/13 01:05:16;;;;;;;;;;;;;;;20.68;74.79;100607.31;7405819;19;1089;-35
2022/06/13 01:07:44;;;;;;;;;;;;;;;20.63;75.25;100597.88;7405407;19;1938;-36
2022/06/13 01:13:07;;;;;;;;;;;;;;;20.64;75.18;100615.66;7403050;19;1673;-36
2022/06/13 01:15:50;;;;;;;;;;;;;;;20.63;75.14;100614.00;7402500;19;1869;-35
2022/06/13 01:18:26;;;;;;;;;;;;;;;20.58;74.98;100616.22;7401895;19;1443;-36
2022/06/13 01:21:02;;;;;;;;;;;;;;;20.58;74.99;100610.03;7403891;19;1498;-36
2022/06/13 01:23:47;;;;;;;;;;;;;;;20.63;74.92;100610.44;7403333;19;1575;-36
2022/06/13 01:26:42;;;;;;;;;;;;;;;20.62;75.30;100611.44;7403825;19;1588;-36
2022/06/13 01:29:31;;;;;;;;;;;;;;;20.44;75.22;100614.06;7403159;19;1819;-36
2022/06/13 01:32:06;;;;;;;;;;;;;;;20.56;75.05;100618.22;7400666;19;2389;-36
2022/06/13 01:34:38;;;;;;;;;;;;;;;20.64;75.17;100623.72;7404015;19;1454;-35
2022/06/13 01:37:12;;;;;;;;;;;;;;;20.63;74.69;100619.38;7401936;19;1877;-36
2022/06/13 01:39:46;;;;;;;;;;;;;;;20.70;75.00;100629.50;7403091;19;1643;-36
2022/06/13 01:42:20;;;;;;;;;;;;;;;20.65;74.65;100617.38;7399909;19;1543;-35
2022/06/13 01:44:53;;;;;;;;;;;;;;;20.65;74.60;100603.94;7403402;19;1138;-35
2022/06/13 01:47:29;;;;;;;;;;;;;;;20.65;74.69;100629.94;7402569;19;1529;-36
2022/06/13 01:50:32;;;;;;;;;;;;;;;;;;;;;
2022/06/13 01:53:05;;;;;;;;;;;;;;;20.73;74.37;100618.44;7400915;19;1130;-35
2022/06/13 01:55:42;;;;;;;;;;;;;;;20.66;74.36;100624.41;7403524;19;1857;-36
2022/06/13 01:58:14;;;;;;;;;;;;;;;20.65;74.53;100638.00;7402794;19;1821;-36
2022/06/13 02:03:34;;;;;;;;;;;;;;;20.62;74.56;100623.03;7387739;19;1302;-35
2022/06/13 02:06:21;;;;;;;;;;;;;;;20.60;74.57;100614.28;7397010;19;1860;-35
2022/06/13 02:11:46;;;;;;;;;;;;;;;20.59;74.53;100627.84;7400659;19;2224;-34
2022/06/13 02:14:21;;;;;;;;;;;;;;;20.62;74.44;100620.34;7403034;19;1935;-34
2022/06/13 02:16:59;;;;;;;;;;;;;;;20.71;74.14;100652.69;7401278;19;1911;-34
2022/06/13 02:19:35;;;;;;;;;;;;;;;20.68;74.36;100632.34;7402740;19;1826;-34
2022/06/13 02:22:10;;;;;;;;;;;;;;;20.69;74.02;100636.72;7404036;19;1661;-34
2022/06/13 02:24:44;;;;;;;;;;;;;;;20.70;73.98;100637.56;7407347;19;1854;-34
2022/06/13 02:27:16;;;;;;;;;;;;;;;20.64;74.31;100634.47;7403352;19;1122;-34
2022/06/13 02:29:47;;;;;;;;;;;;;;;20.64;74.25;100626.41;7402308;19;1592;-34
2022/06/13 02:32:20;;;;;;;;;;;;;;;20.66;74.18;100645.06;7402740;19;1728;-34
2022/06/13 02:34:52;;;;;;;;;;;;;;;20.24;75.62;100646.34;7402645;19;1896;-34
2022/06/13 02:37:27;;;;;;;;;;;;;;;20.44;75.08;100639.06;7400171;19;1887;-34
2022/06/13 02:39:58;;;;;;;;;;;;;;;20.56;74.48;100652.31;7402949;19;1651;-34
2022/06/13 02:42:34;;;;;;;;;;;;;;;20.54;74.63;100644.41;7402480;19;1634;-35
2022/06/13 02:45:04;;;;;;;;;;;;;;;20.59;74.15;100639.47;7402766;19;1604;-34
2022/06/13 02:47:43;;;;;;;;;;;;;;;20.66;74.27;100651.28;7401882;19;1463;-35
2022/06/13 02:50:19;;;;;;;;;;;;;;;20.64;74.19;100649.75;7402617;19;1659;-35
2022/06/13 02:52:58;;;;;;;;;;;;;;;20.60;74.57;100665.31;7401519;19;1305;-34
2022/06/13 02:55:29;;;;;;;;;;;;;;;20.60;74.22;100654.56;7400484;19;1126;-35
2022/06/13 02:58:11;;;;;;;;;;;;;;;20.65;74.34;100655.00;7404006;19;1129;-34
2022/06/13 03:00:52;;;;;;;;;;;;;;;20.77;74.13;100660.13;7401910;19;1604;-34
2022/06/13 03:03:26;;;;;;;;;;;;;;;20.72;74.37;100665.97;7400102;19;1376;-34
2022/06/13 03:06:17;;;;;;;;;;;;;;;20.74;74.24;100673.91;7402594;19;952;-35
2022/06/13 03:08:52;;;;;;;;;;;;;;;20.78;74.17;100667.22;7401916;19;1561;-36
2022/06/13 03:11:43;;;;;;;;;;;;;;;20.70;74.34;100672.50;7402192;19;1075;-34
2022/06/13 03:14:18;;;;;;;;;;;;;;;20.75;74.48;100654.06;7400564;19;1713;-35
2022/06/13 03:16:54;;;;;;;;;;;;;;;20.77;74.48;100676.25;7400379;19;1887;-34
2022/06/13 03:19:27;;;;;;;;;;;;;;;20.75;74.27;100672.88;7400648;19;1965;-34
2022/06/13 03:21:59;;;;;;;;;;;;;;;20.74;74.17;100673.91;7399963;19;2420;-34
2022/06/13 03:24:34;;;;;;;;;;;;;;;20.70;74.59;100667.97;7398875;19;1972;-34
2022/06/13 03:27:15;;;;;;;;;;;;;;;20.73;74.26;100674.88;7401064;19;1007;-34
2022/06/13 03:29:48;;;;;;;;;;;;;;;20.73;74.39;100685.63;7400590;19;1750;-34
2022/06/13 03:32:21;;;;;;;;;;;;;;;20.74;74.50;100663.16;7401504;19;1936;-34
2022/06/13 03:34:55;;;;;;;;;;;;;;;20.66;74.60;100656.66;7400548;19;2009;-34
2022/06/13 03:37:26;;;;;;;;;;;;;;;20.65;74.82;100655.00;7397374;19;1962;-34
2022/06/13 03:40:02;;;;;;;;;;;;;;;20.68;74.85;100666.44;7398861;19;1837;-34
2022/06/13 03:42:37;;;;;;;;;;;;;;;20.70;74.41;100659.06;7399874;19;1401;-35
2022/06/13 03:45:11;;;;;;;;;;;;;;;20.70;74.72;100669.81;7399317;19;1536;-35
2022/06/13 03:47:45;;;;;;;;;;;;;;;20.75;74.48;100670.19;7400458;19;1463;-34
2022/06/13 03:50:19;;;;;;;;;;;;;;;20.77;74.26;100665.50;7401296;19;1101;-35
2022/06/13 03:52:51;;;;;;;;;;;;;;;20.81;74.52;100661.53;7400224;19;1930;-35
2022/06/13 03:55:29;;;;;;;;;;;;;;;20.80;74.71;100673.28;7400403;19;1590;-34
2022/06/13 03:58:07;;;;;;;;;;;;;;;20.83;74.62;100678.34;7395745;19;1854;-35
2022/06/13 04:00:48;;;;;;;;;;;;;;;20.81;74.45;100674.97;7397964;19;1514;-34
2022/06/13 04:03:19;;;;;;;;;;;;;;;20.86;74.26;100692.34;7397376;19;1655;-34
2022/06/13 04:05:57;;;;;;;;;;;;;;;20.88;74.51;100665.31;7399133;19;1672;-35
2022/06/13 04:08:27;;;;;;;;;;;;;;;20.75;74.84;100670.19;7399519;19;1346;-35
2022/06/13 04:11:09;;;;;;;;;;;;;;;20.76;74.93;100669.22;7393013;19;1383;-34
2022/06/13 04:13:48;;;;;;;;;;;;;;;20.78;74.89;100676.13;7402642;19;1648;-34
2022/06/13 04:16:29;;;;;;;;;;;;;;;20.89;74.72;100685.84;7405389;19;1857;-34
2022/06/13 04:19:10;;;;;;;;;;;;;;;20.87;75.02;100682.47;7404380;19;1645;-35
2022/06/13 04:21:42;;;;;;;;;;;;;;;20.95;74.44;100681.69;7405506;19;1640;-34
2022/06/13 04:24:19;;;;;;;;;;;;;;;20.90;74.75;100678.63;7403801;19;1801;-35
2022/06/13 04:26:53;;;;;;;;;;;;;;;21.02;74.69;100694.38;7404730;19;1809;-35
2022/06/13 04:29:25;;;;;;;;;;;;;;;21.03;73.15;100696.09;7404304;19;1919;-34
2022/06/13 04:31:56;;;;;;;;;;;;;;;20.93;74.80;100703.38;7405120;19;1711;-36
2022/06/13 04:34:27;;;;;;;;;;;;;;;20.91;75.03;100697.28;7404502;19;1808;-34
2022/06/13 04:52:08;;;;;;;;;;;;;;;20.69;75.77;100722.72;7433027;19;1583;-34
2022/06/13 04:54:39;;;;;;;;;;;;;;;20.61;75.94;100718.06;7436362;19;1772;-34
2022/06/13 04:57:07;;;;;;;;;;;;;;;20.68;75.63;100723.69;7436082;19;1805;-34
2022/06/13 04:59:36;;;;;;;;;;;;;;;20.81;75.34;100723.34;7433908;19;1859;-34
2022/06/13 05:02:13;;;;;;;;;;;;;;;20.81;75.29;100712.59;7435996;19;1828;-34
2022/06/13 05:04:42;;;;;;;;;;;;;;;20.93;74.90;100721.31;7435582;19;1721;-35
2022/06/13 05:07:15;;;;;;;;;;;;;;;21.01;74.32;100729.50;7435024;19;1658;-35
2022/06/13 05:09:45;;;;;;;;;;;;;;;21.05;74.86;100720.97;7435473;19;1591;-34
2022/06/13 05:12:16;;;;;;;;;;;;;;;20.92;75.49;100736.59;7435582;19;1482;-34
2022/06/13 05:14:50;;;;;;;;;;;;;;;20.99;74.99;100732.34;7437535;19;1053;-34
2022/06/13 05:17:26;;;;;;;;;;;;;;;21.11;75.05;100735.66;7435738;19;1734;-35
2022/06/13 05:20:00;;;;;;;;;;;;;;;20.94;75.15;100723.84;7434819;19;1862;-35
2022/06/13 05:22:38;;;;;;;;;;;;;;;21.18;75.09;100723.28;7433863;19;1719;-34
2022/06/13 05:25:11;;;;;;;;;;;;;;;21.47;73.81;100729.50;7436901;19;1603;-35
2022/06/13 05:27:39;;;;;;;;;;;;;;;21.51;73.63;100714.78;7435229;19;1598;-35
2022/06/13 05:30:08;;;;;;;;;;;;;;;21.54;73.63;100720.66;7437090;19;995;-35
2022/06/13 05:32:36;;;;;;;;;;;;;;;21.66;73.87;100721.28;7437267;19;1788;-35
2022/06/13 05:35:04;;;;;;;;;;;;;;;21.60;73.80;100721.91;7439162;19;2045;-35
2022/06/13 05:37:35;;;;;;;;;;;;;;;21.54;74.35;100725.22;7435875;19;1966;-34
2022/06/13 05:40:04;;;;;;;;;;;;;;;21.53;74.28;100719.00;7435709;19;1847;-34
2022/06/13 05:42:32;;;;;;;;;;;;;;;21.50;73.81;100711.22;7433125;19;1843;-34
2022/06/13 05:45:04;;;;;;;;;;;;;;;21.61;74.04;100710.16;7436589;19;1543;-35
2022/06/13 05:47:42;;;;;;;;;;;;;;;21.57;73.95;100709.63;7434296;19;1946;-35
2022/06/13 05:50:15;;;;;;;;;;;;;;;21.50;74.04;100710.38;7433242;19;1359;-34
2022/06/13 05:52:46;;;;;;;;;;;;;;;21.52;73.71;100700.31;7404403;19;2038;-34
2022/06/13 05:55:14;;;;;;;;;;;;;;;21.57;73.62;100709.63;7398087;19;2074;-35
2022/06/13 05:57:43;;;;;;;;;;;;;;;21.63;73.35;100700.91;7404626;19;1731;-35
2022/06/13 06:00:17;;;;;;;;;;;;;;;21.63;73.29;100698.22;7403334;19;1852;-35
2022/06/13 06:02:46;;;;;;;;;;;;;;;21.67;73.11;100698.78;7403769;19;1004;-34
2022/06/13 06:05:14;;;;;;;;;;;;;;;21.60;73.50;100701.22;7403500;19;1919;-34
2022/06/13 06:07:42;;;;;;;;;;;;;;;21.62;73.18;100707.28;7404133;19;1856;-36
2022/06/13 06:10:18;;;;;;;;;;;;;;;21.61;73.43;100704.78;7407099;19;1778;-35
2022/06/13 06:12:46;;;;;;;;;;;;;;;21.60;73.44;100719.22;7405678;19;1725;-35
2022/06/13 06:15:15;;;;;;;;;;;;;;;21.60;73.42;100703.91;7406599;19;1641;-37
2022/06/13 06:17:43;;;;;;;;;;;;;;;21.54;73.99;100714.44;7406969;19;1836;-34
2022/06/13 06:20:17;;;;;;;;;;;;;;;21.50;73.68;100718.44;7404948;19;1854;-34
2022/06/13 06:22:45;;;;;;;;;;;;;;;21.55;73.62;100710.78;7405160;19;2069;-35
2022/06/13 06:25:16;;;;;;;;;;;;;;;21.47;73.63;100697.22;7402057;19;1460;-35
2022/06/13 06:27:44;;;;;;;;;;;;;;;21.47;73.50;100713.38;7404636;19;1520;-34
2022/06/13 06:30:15;;;;;;;;;;;;;;;21.48;73.64;100707.00;7404431;19;1153;-34
2022/06/13 06:32:44;;;;;;;;;;;;;;;21.47;73.77;100702.59;7406326;19;1040;-34
2022/06/13 06:35:13;;;;;;;;;;;;;;;21.40;74.08;100703.19;7405529;19;1818;-35
2022/06/13 06:37:41;;;;;;;;;;;;;;;21.43;73.90;100713.69;7402852;19;1808;-34
2022/06/13 06:40:11;;;;;;;;;;;;;;;21.40;73.89;100703.19;7403017;19;1897;-35
2022/06/13 06:42:41;;;;;;;;;;;;;;;21.41;74.06;100707.59;7402948;19;1437;-35
2022/06/13 06:45:11;;;;;;;;;;;;;;;21.43;74.03;100696.72;7405663;19;1153;-35
2022/06/13 06:47:39;;;;;;;;;;;;;;;21.48;73.91;100705.16;7403687;19;1797;-35
2022/06/13 06:50:08;;;;;;;;;;;;;;;21.53;74.16;100704.72;7403957;19;1960;-35
2022/06/13 06:52:36;;;;;;;;;;;;;;;21.51;74.66;100693.25;7404522;19;1748;-35
2022/06/13 07:00:29;;;;;;;;;;;;;;;21.54;74.69;100703.69;7402153;19;1842;-35
2022/06/13 07:02:59;;;;;;;;;;;;;;;21.53;74.66;100713.63;7401287;19;1500;-35
2022/06/13 07:05:27;;;;;;;;;;;;;;;21.49;74.27;100689.84;7404508;19;1206;-34
2022/06/13 07:07:55;;;;;;;;;;;;;;;21.60;74.34;100719.22;7403731;19;1505;-35
2022/06/13 07:10:23;;;;;;;;;;;;;;;21.58;74.01;100715.84;7404213;19;1661;-34
2022/06/13 07:12:54;;;;;;;;;;;;;;;21.60;74.29;100708.44;7403847;19;1674;-35
2022/06/13 07:15:23;;;;;;;;;;;;;;;21.58;74.10;100699.69;7402226;19;1621;-35
2022/06/13 07:17:51;;;;;;;;;;;;;;;21.62;73.93;100712.66;7403093;19;1294;-34
2022/06/13 07:20:20;;;;;;;;;;;;;;;21.54;74.02;100709.06;7403246;19;1889;-35
2022/06/13 07:22:49;;;;;;;;;;;;;;;21.60;74.16;100719.22;7402925;19;1802;-34
2022/06/13 07:25:18;;;;;;;;;;;;;;;21.52;74.01;100721.84;7401863;19;1415;-35
2022/06/13 07:27:47;;;;;;;;;;;;;;;21.44;74.45;100704.59;7404219;19;1754;-35
2022/06/13 07:30:19;;;;;;;;;;;;;;;21.50;74.45;100718.44;7403778;19;1374;-36
2022/06/13 07:32:47;;;;;;;;;;;;;;;21.53;74.35;100724.38;7404428;19;1035;-35
2022/06/13 07:35:17;;;;;;;;;;;;;;;21.59;74.09;100718.38;7403443;19;1946;-34
2022/06/13 07:40:26;;;;;;;;;;;;;;;21.56;73.77;100696.31;7399343;19;1976;-34
2022/06/13 07:42:56;;;;;;;;;;;;;;;21.56;73.70;100707.91;7402538;19;1664;-35
2022/06/13 07:45:29;;;;;;;;;;;;;;;21.59;73.44;100704.09;7403650;19;1916;-35
2022/06/13 07:47:57;;;;;;;;;;;;;;;21.62;73.99;100719.91;7402478;19;1417;-35
2022/06/13 07:50:27;;;;;;;;;;;;;;;21.57;73.94;100711.47;7401120;19;1668;-35
2022/06/13 07:52:57;;;;;;;;;;;;;;;21.55;74.31;100700.00;7400698;19;1769;-35
2022/06/13 07:55:26;;;;;;;;;;;;;;;21.63;74.31;100708.16;7402543;19;1588;-34
2022/06/13 07:57:54;;;;;;;;;;;;;;;21.76;73.99;100711.28;7401964;19;1910;-35
2022/06/13 08:00:25;;;;;;;;;;;;;;;21.74;73.67;100696.31;7402054;19;1863;-35
2022/06/13 08:02:56;;;;;;;;;;;;;;;21.69;73.72;100690.56;7402667;19;1020;-35
2022/06/13 08:05:24;;;;;;;;;;;;;;;21.72;74.02;100712.59;7400611;19;1951;-35
2022/06/13 08:07:52;;;;;;;;;;;;;;;21.75;74.13;100701.53;7401967;19;1606;-35
2022/06/13 08:10:21;;;;;;;;;;;;;;;21.76;73.88;100697.81;7399025;19;1345;-36
2022/06/13 08:12:49;;;;;;;;;;;;;;;21.84;73.89;100683.59;7401497;19;1516;-35
2022/06/13 08:15:18;;;;;;;;;;;;;;;21.83;73.76;100690.84;7402110;19;1720;-35
2022/06/13 08:17:46;;;;;;;;;;;;;;;21.85;73.74;100691.53;7403068;19;994;-35
2022/06/13 08:20:23;;;;;;;;;;;;;;;22.06;73.53;100698.41;7399534;19;1862;-35
2022/06/13 08:22:55;;;;;;;;;;;;;;;22.01;73.74;100688.09;7401870;19;2035;-35
2022/06/13 08:25:28;;;;;;;;;;;;;;;22.06;73.68;100695.69;7400665;19;1634;-35
2022/06/13 08:27:58;;;;;;;;;;;;;;;22.03;73.90;100714.88;7399978;19;1839;-35
2022/06/13 08:30:29;;;;;;;;;;;;;;;21.97;73.80;100702.03;7401070;19;1599;-35
2022/06/13 08:32:58;;;;;;;;;;;;;;;22.00;73.83;100690.94;7401557;19;1575;-35
2022/06/13 08:35:32;;;;;;;;;;;;;;;21.97;73.50;100694.81;7402209;19;1564;-35
2022/06/13 08:38:03;;;;;;;;;;;;;;;21.99;73.72;100690.09;7402910;19;1648;-35
2022/06/13 08:40:47;;;;;;;;;;;;;;;21.99;73.45;100697.34;7400807;19;1849;-35
2022/06/13 08:43:24;;;;;;;;;;;;;;;21.97;73.75;100688.59;7402955;19;1569;-35
2022/06/13 08:45:55;;;;;;;;;;;;;;;22.00;73.79;100693.63;7400300;19;1423;-35
2022/06/13 08:48:27;;;;;;;;;;;;;;;22.02;73.58;100694.31;7400056;19;1751;-35
2022/06/13 08:51:03;;;;;;;;;;;;;;;22.00;73.82;100688.25;7397575;19;2052;-35
2022/06/13 08:53:34;;;;;;;;;;;;;;;22.01;73.87;100698.03;7399159;19;2018;-35
2022/06/13 08:56:07;;;;;;;;;;;;;;;22.01;73.86;100695.34;7400476;19;1691;-35
2022/06/13 08:58:37;;;;;;;;;;;;;;;22.02;73.93;100691.63;7398333;19;1432;-35
2022/06/13 09:01:09;;;;;;;;;;;;;;;22.01;73.68;100684.56;7399382;19;1868;-35
2022/06/13 09:03:42;;;;;;;;;;;;;;;22.08;74.02;100677.53;7403727;19;1830;-35
2022/06/13 09:06:16;;;;;;;;;;;;;;;22.01;74.03;100665.72;7404645;19;1525;-35
2022/06/13 09:08:48;;;;;;;;;;;;;;;21.97;73.96;100678.66;7401771;19;1889;-35
2022/06/13 09:11:19;;;;;;;;;;;;;;;22.03;74.02;100672.63;7399456;19;1773;-35
2022/06/13 09:13:54;;;;;;;;;;;;;;;22.15;73.71;100686.69;7398561;19;1770;-35
2022/06/13 09:16:32;;;;;;;;;;;;;;;22.12;73.82;100681.59;7400363;19;1912;-35
2022/06/13 09:19:09;;;;;;;;;;;;;;;22.20;73.81;100679.00;7400064;19;1885;-35
2022/06/13 09:21:45;;;;;;;;;;;;;;;22.13;74.01;100677.91;7397717;19;1922;-35
2022/06/13 09:24:18;;;;;;;;;;;;;;;22.11;74.17;100677.22;7399409;19;1983;-34
2022/06/13 09:27:10;;;;;;;;;;;;;;;22.20;74.08;100679.00;7402150;19;1831;-34
2022/06/13 09:29:43;;;;;;;;;;;;;;;22.16;74.03;100674.06;7406857;19;1982;-34
2022/06/13 09:32:15;;;;;;;;;;;;;;;22.13;74.06;100675.22;7403483;19;1600;-34
2022/06/13 09:34:45;;;;;;;;;;;;;;;22.12;73.97;100686.16;7405655;19;1862;-34
2022/06/13 09:37:17;;;;;;;;;;;;;;;22.10;73.86;100669.31;7404993;19;1816;-35
2022/06/13 09:39:46;;;;;;;;;;;;;;;22.10;73.67;100664.75;7407601;19;1754;-34
2022/06/13 09:42:22;;;;;;;;;;;;;;;22.12;73.76;100670.81;7403448;19;1944;-34
2022/06/13 09:45:00;;;;;;;;;;;;;;;22.11;73.87;100663.78;7404875;19;1942;-34
2022/06/13 09:47:33;;;;;;;;;;;;;;;22.16;74.01;100677.63;7405975;19;1961;-37
2022/06/13 09:50:06;;;;;;;;;;;;;;;22.10;74.05;100664.75;7406391;19;1835;-35
2022/06/13 09:52:44;;;;;;;;;;;;;;;22.09;73.88;100663.09;7406961;19;2039;-34
2022/06/13 09:55:21;;;;;;;;;;;;;;;22.12;73.98;100661.91;7403197;19;1758;-35
2022/06/13 09:57:55;;;;;;;;;;;;;;;22.08;73.89;100672.16;7406259;19;1816;-35
2022/06/13 10:00:25;;;;;;;;;;;;;;;22.08;73.95;100665.94;7406603;19;1822;-35
2022/06/13 10:03:00;;;;;;;;;;;;;;;22.09;73.64;100659.56;7404135;19;1910;-35
2022/06/13 10:05:36;;;;;;;;;;;;;;;22.10;73.93;100650.47;7406555;19;1828;-34
2022/06/13 10:08:13;;;;;;;;;;;;;;;22.08;73.90;100652.47;7407088;19;1695;-34
2022/06/13 10:10:44;;;;;;;;;;;;;;;22.08;73.79;100653.31;7404166;19;1867;-34
2022/06/13 10:13:19;;;;;;;;;;;;;;;22.06;73.98;100649.91;7406606;19;1489;-34
2022/06/13 10:15:51;;;;;;;;;;;;;;;22.08;74.08;100655.16;7406454;19;1649;-35
2022/06/13 10:18:36;;;;;;;;;;;;;;;22.06;74.26;100644.53;7406358;19;1721;-34
2022/06/13 10:21:10;;;;;;;;;;;;;;;22.07;74.01;100648.09;7405796;19;1989;-35
2022/06/13 10:23:45;;;;;;;;;;;;;;;22.07;74.30;100640.03;7406172;19;1156;-35
2022/06/13 10:26:18;;;;;;;;;;;;;;;22.02;74.17;100644.03;7404155;19;1963;-35
2022/06/13 10:28:53;;;;;;;;;;;;;;;22.05;74.34;100632.09;7404582;19;1562;-35
2022/06/13 10:31:26;;;;;;;;;;;;;;;22.11;74.11;100652.16;7405522;19;1380;-35
2022/06/13 10:33:58;;;;;;;;;;;;;;;22.04;74.07;100630.38;7403187;19;1690;-34
2022/06/13 10:36:31;;;;;;;;;;;;;;;22.05;73.90;100637.47;7404868;19;1947;-34
2022/06/13 10:39:04;;;;;;;;;;;;;;;22.05;74.19;100635.63;7406407;19;1133;-35
2022/06/13 10:41:35;;;;;;;;;;;;;;;22.05;74.12;100626.72;7401627;19;2042;-35
2022/06/13 10:44:04;;;;;;;;;;;;;;;22.11;74.23;100636.00;7404636;19;1696;-34
2022/06/13 10:46:32;;;;;;;;;;;;;;;22.08;74.16;100631.75;7404398;19;1821;-35
2022/06/13 10:49:05;;;;;;;;;;;;;;;22.08;73.75;100612.91;7403686;19;1663;-35
2022/06/13 10:51:33;;;;;;;;;;;;;;;22.05;73.83;100616.78;7402063;19;1718;-34
2022/06/13 10:54:09;;;;;;;;;;;;;;;22.07;73.76;100607.72;7406573;19;957;-34
2022/06/13 10:56:39;;;;;;;;;;;;;;;22.05;74.07;100605.16;7404566;19;2078;-35
2022/06/13 10:59:07;;;;;;;;;;;;;;;22.05;74.31;100610.53;7403426;19;1623;-34
2022/06/13 11:01:36;;;;;;;;;;;;;;;22.04;74.12;100615.09;7402799;19;1855;-35
2022/06/13 11:04:06;;;;;;;;;;;;;;;22.07;74.08;100603.16;7404264;19;1308;-35
2022/06/13 11:06:36;;;;;;;;;;;;;;;22.07;74.30;100608.53;7404622;19;1637;-34
2022/06/13 11:09:09;;;;;;;;;;;;;;;22.06;74.33;100601.44;7404326;19;1270;-34
2022/06/13 11:11:39;;;;;;;;;;;;;;;22.06;73.94;100606.84;7401197;19;1021;-34
2022/06/13 11:14:18;;;;;;;;;;;;;;;22.05;74.02;100599.78;7404092;19;1733;-34
2022/06/13 11:25:03;;;;;;;;;;;;;;;22.04;74.00;100571.16;7399908;19;1750;-34
2022/06/13 11:27:44;;;;;;;;;;;;;;;22.08;74.01;100590.53;7400276;19;1031;-35
2022/06/13 11:30:32;;;;;;;;;;;;;;;22.04;74.42;100577.41;7400564;19;1814;-35
2022/06/13 11:33:02;;;;;;;;;;;;;;;22.06;74.20;100579.91;7402151;19;1607;-35
2022/06/13 11:35:32;;;;;;;;;;;;;;;22.07;74.33;100578.09;7399483;19;1020;-34
2022/06/13 11:38:15;;;;;;;;;;;;;;;22.04;74.29;100572.00;7401838;19;1490;-34
2022/06/13 11:40:47;;;;;;;;;;;;;;;22.05;74.32;100564.78;7403565;19;1422;-35
2022/06/13 11:43:24;;;;;;;;;;;;;;;22.06;74.29;100563.75;7400191;19;1855;-34
2022/06/13 11:45:58;;;;;;;;;;;;;;;22.07;74.21;100570.00;7409938;19;1138;-34
2022/06/13 11:48:26;;;;;;;;;;;;;;;22.05;74.13;100554.84;7402945;19;1795;-34
2022/06/13 11:50:57;;;;;;;;;;;;;;;22.08;74.38;100561.75;7399801;19;1484;-34
2022/06/13 11:53:38;;;;;;;;;;;;;;;22.07;74.19;100564.63;7401970;19;1441;-34
2022/06/13 11:56:12;;;;;;;;;;;;;;;22.05;74.20;100545.91;7403350;19;1240;-34
2022/06/13 11:58:43;;;;;;;;;;;;;;;22.06;74.45;100552.97;7401780;19;1584;-34
2022/06/13 12:01:19;;;;;;;;;;;;;;;22.12;74.14;100563.09;7399003;19;1538;-34
2022/06/13 12:03:50;;;;;;;;;;;;;;;22.06;74.11;100550.28;7397365;19;1851;-34
2022/06/13 12:06:20;;;;;;;;;;;;;;;22.10;74.25;100548.97;7402404;19;1468;-34
2022/06/13 12:08:52;;;;;;;;;;;;;;;22.04;74.16;100544.22;7404397;19;1467;-35
2022/06/13 12:11:26;;;;;;;;;;;;;;;22.04;74.40;100549.59;7403223;19;1595;-34
2022/06/13 12:13:59;;;;;;;;;;;;;;;22.03;74.19;100543.38;7402344;19;1708;-35
2022/06/13 12:16:33;;;;;;;;;;;;;;;22.08;74.31;100545.59;7401710;19;1937;-34
2022/06/13 12:19:12;;;;;;;;;;;;;;;22.08;74.30;100545.59;7398491;19;2035;-34
2022/06/13 12:21:43;;;;;;;;;;;;;;;22.06;74.13;100552.97;7400830;19;2062;-34
2022/06/13 12:24:15;;;;;;;;;;;;;;;22.07;74.17;100538.53;7400281;19;1564;-34
2022/06/13 12:26:51;;;;;;;;;;;;;;;22.09;74.15;100541.06;7402343;19;1720;-35
2022/06/13 12:29:35;;;;;;;;;;;;;;;22.07;74.12;100543.91;7402609;19;1664;-35
2022/06/13 12:32:07;;;;;;;;;;;;;;;22.07;74.62;100526.91;7401554;19;1726;-36
2022/06/13 12:34:40;;;;;;;;;;;;;;;22.00;74.79;100514.09;7402448;19;1905;-35
2022/06/13 12:37:22;;;;;;;;;;;;;;;22.12;74.50;100514.63;7402056;19;1673;-36
2022/06/13 12:39:58;;;;;;;;;;;;;;;22.08;74.46;100507.88;7401330;19;1672;-35
2022/06/13 12:42:47;;;;;;;;;;;;;;;22.03;74.54;100521.84;7400352;19;1851;-35
2022/06/13 12:45:31;;;;;;;;;;;;;;;22.01;74.91;100504.16;7398527;19;2540;-35
2022/06/13 12:48:10;;;;;;;;;;;;;;;22.06;74.82;100512.59;7400127;19;1827;-35
2022/06/13 12:50:49;;;;;;;;;;;;;;;22.09;74.34;100508.75;7399455;19;1834;-34
2022/06/13 12:53:36;;;;;;;;;;;;;;;22.09;74.39;100514.13;7400414;19;1635;-34
2022/06/13 12:56:08;;;;;;;;;;;;;;;22.10;74.67;100519.34;7401291;19;1722;-34
2022/06/13 12:58:41;;;;;;;;;;;;;;;22.06;74.31;100493.75;7399965;19;1640;-34
2022/06/13 13:01:13;;;;;;;;;;;;;;;22.07;75.00;100502.69;7400461;19;1873;-35
2022/06/13 13:03:56;;;;;;;;;;;;;;;22.13;74.53;100496.66;7405606;19;1854;-35
2022/06/13 13:06:33;;;;;;;;;;;;;;;22.13;74.53;100488.56;7406965;19;1721;-35
2022/06/13 13:09:10;;;;;;;;;;;;;;;22.18;74.30;100491.59;7406147;19;1916;-35
2022/06/13 13:11:58;;;;;;;;;;;;;;;22.14;74.46;100482.16;7408336;19;1535;-35
2022/06/13 13:14:37;;;;;;;;;;;;;;;22.11;74.85;100486.03;7405139;19;1740;-35
2022/06/13 13:17:13;;;;;;;;;;;;;;;22.09;74.55;100466.50;7407791;19;1640;-36
2022/06/13 13:19:49;;;;;;;;;;;;;;;22.14;74.80;100472.22;7405898;19;1578;-35
2022/06/13 13:22:22;;;;;;;;;;;;;;;22.21;74.83;100480.50;7407546;19;1854;-36
2022/06/13 13:25:06;;;;;;;;;;;;;;;22.20;75.41;100476.13;7407653;19;1616;-35
2022/06/13 13:27:39;;;;;;;;;;;;;;;22.18;75.10;100460.16;7408024;19;1664;-35
2022/06/13 13:30:14;;;;;;;;;;;;;;;22.20;75.00;100474.28;7405796;19;1671;-35
2022/06/13 13:32:51;;;;;;;;;;;;;;;22.19;74.91;100464.50;7405866;19;1944;-35
2022/06/13 13:35:24;;;;;;;;;;;;;;;22.18;75.13;100462.84;7404739;19;1702;-35
2022/06/13 13:37:58;;;;;;;;;;;;;;;22.21;75.29;100469.75;7406912;19;1626;-35
2022/06/13 13:40:34;;;;;;;;;;;;;;;22.21;77.33;100458.97;7405710;19;1876;-35
2022/06/13 13:43:08;;;;;;;;;;;;;;;22.00;78.92;100473.72;7404418;19;1855;-35
2022/06/13 13:45:42;;;;;;;;;;;;;;;21.20;77.19;100465.00;7405451;19;2056;-35
2022/06/13 13:48:17;;;;;;;;;;;;;;;20.54;75.74;100448.28;7405464;19;1379;-35
2022/06/13 13:50:48;;;;;;;;;;;;;;;20.18;74.77;100442.06;7404307;19;1838;-36
2022/06/13 13:53:22;;;;;;;;;;;;;;;20.10;74.27;100450.84;7407248;19;1736;-35
2022/06/13 13:55:53;;;;;;;;;;;;;;;20.40;73.87;100435.41;7406343;19;1815;-35
2022/06/13 13:58:25;;;;;;;;;;;;;;;20.63;73.28;100446.53;7405241;19;1927;-35